Terminal Aerodrome Forecast
Issued by NWS

Home | Current Version | Previous Version | Text Only | Print | Product List | Glossary On
Versions: 1 2 3 4 5 6 7 8 9 10 11 12 13 14 15 16 17 18 19 20 21 22 23 24 25 26 27 28 29
000
FTUS46 KLOX 251724
TAFLAX
TAF
KLAX 251724Z 2518/2624 24008KT P6SM FEW015 BKN070
     FM252000 27015G22KT P6SM BKN050
     FM260200 26012KT P6SM SCT150
     FM260600 VRB03KT P6SM SCT150
     FM261100 VRB03KT 4SM BR SCT150
     FM261700 VRB03KT P6SM BKN150
     FM261900 26012KT P6SM BKN150=

USA.gov is the U.S. government's official web portal to all federal, state and local government web resources and services.